Presidio of San Francisco, California
Current Conditions -  °F | °C
As of 2:56 PM on Tuesday 21 Oct 2014 (Local Time) from KSFO Reporting Station
Scattered Clouds Scattered Clouds  
Wind Chill: 71°   Ceiling: Unl
Heat Index: 71°   Visibility: 10mi
Dew Point: 50°   Wind: 15mph
Humidity: 47%   Direction: 270°W
Pressure: 30.04"   Gusts: 23mph
Location:  37.7976°N, 122.466°W
Report Text: KSFO 212156Z 27013G20KT 10SM SCT180 22/10 A3004 RMK AO2 SLP173 T02170100 $
Loading
Personal Weather Stations






























Interactive Weather Map
Tropical Storm Tracking
New forecast layout! Learn more

10-Day Weather Forecast

Advertisements
Track Severe Weather on mobile